Aggieland, Texas
Current Conditions -  °F | °C
As of 10:53 PM on Friday 24 Oct 2014 (Local Time) from KCLL Reporting Station
Clear Clear  
Wind Chill: 68°   Ceiling: Unl
Heat Index: 68°   Visibility: 10mi
Dew Point: 57°   Wind: 5mph
Humidity: 68%   Direction: 120°ESE
Pressure: 30.14"   Gusts: NA
Location:  30.5943°N, 96.3574°W
Report Text: KCLL 250353Z AUTO 12004KT 10SM CLR 20/14 A3014 RMK AO2 SLP203 T02000139
Loading
Personal Weather Stations






























Interactive Weather Map
Tropical Storm Tracking
New forecast layout! Learn more

10-Day Weather Forecast

Advertisements
Track Severe Weather on mobile